Terminal Aerodrome Forecast
Issued by NWS

Home | Current Version | Previous Version | Text Only | Print | Product List | Glossary On
Versions: 1 2 3 4 5 6 7 8 9 10 11 12 13 14 15
000
FTUS43 KSGF 221720
TAFBBG
TAF
KBBG 221720Z 2218/2318 14009KT P6SM VCSH OVC020
     FM222200 13006KT P6SM VCSH BKN030
     FM230900 VRB03KT 1SM BR OVC005
     FM231300 32006KT P6SM OVC020 PROB30 2313/2317 5SM TS BKN020CB=

USA.gov is the U.S. government's official web portal to all federal, state and local government web resources and services.